sensor_id;sensor_type;location;lat;lon;timestamp;P1;durP1;ratioP1;P2;durP2;ratioP2
19804;SDS011;10062;51.052;13.756;2023-10-13T00:00:37;15.00;;;6.53;;
19804;SDS011;10062;51.052;13.756;2023-10-13T00:03:11;9.40;;;5.73;;
19804;SDS011;10062;51.052;13.756;2023-10-13T00:05:45;15.67;;;7.90;;
19804;SDS011;10062;51.052;13.756;2023-10-13T00:08:18;16.00;;;6.07;;
19804;SDS011;10062;51.052;13.756;2023-10-13T00:10:50;17.63;;;6.53;;
19804;SDS011;10062;51.052;13.756;2023-10-13T00:13:22;13.40;;;6.17;;
19804;SDS011;10062;51.052;13.756;2023-10-13T00:15:55;18.30;;;6.70;;
19804;SDS011;10062;51.052;13.756;2023-10-13T00:18:30;12.07;;;6.03;;
19804;SDS011;10062;51.052;13.756;2023-10-13T00:21:04;12.57;;;6.23;;
19804;SDS011;10062;51.052;13.756;2023-10-13T00:23:43;10.17;;;5.67;;
19804;SDS011;10062;51.052;13.756;2023-10-13T00:26:23;15.30;;;6.87;;
19804;SDS011;10062;51.052;13.756;2023-10-13T00:28:59;11.00;;;6.23;;
19804;SDS011;10062;51.052;13.756;2023-10-13T00:31:39;15.43;;;6.57;;
19804;SDS011;10062;51.052;13.756;2023-10-13T00:34:14;11.53;;;5.43;;
19804;SDS011;10062;51.052;13.756;2023-10-13T00:36:49;14.20;;;5.93;;
19804;SDS011;10062;51.052;13.756;2023-10-13T00:39:41;13.30;;;6.30;;
19804;SDS011;10062;51.052;13.756;2023-10-13T00:42:14;13.03;;;6.13;;
19804;SDS011;10062;51.052;13.756;2023-10-13T00:44:49;10.03;;;5.77;;
19804;SDS011;10062;51.052;13.756;2023-10-13T00:47:25;10.87;;;6.07;;
19804;SDS011;10062;51.052;13.756;2023-10-13T00:50:20;12.23;;;5.93;;
19804;SDS011;10062;51.052;13.756;2023-10-13T00:52:54;12.07;;;6.07;;
19804;SDS011;10062;51.052;13.756;2023-10-13T00:55:25;10.00;;;5.60;;
19804;SDS011;10062;51.052;13.756;2023-10-13T00:57:57;11.47;;;5.70;;
19804;SDS011;10062;51.052;13.756;2023-10-13T01:00:33;13.40;;;6.10;;
19804;SDS011;10062;51.052;13.756;2023-10-13T01:03:16;10.73;;;6.13;;
19804;SDS011;10062;51.052;13.756;2023-10-13T01:05:57;14.63;;;6.23;;
19804;SDS011;10062;51.052;13.756;2023-10-13T01:08:32;10.37;;;5.57;;
19804;SDS011;10062;51.052;13.756;2023-10-13T01:11:08;13.57;;;5.90;;
19804;SDS011;10062;51.052;13.756;2023-10-13T01:13:40;13.27;;;6.07;;
19804;SDS011;10062;51.052;13.756;2023-10-13T01:16:12;12.07;;;5.43;;
19804;SDS011;10062;51.052;13.756;2023-10-13T01:18:43;13.00;;;5.63;;
19804;SDS011;10062;51.052;13.756;2023-10-13T01:21:20;15.53;;;6.97;;
19804;SDS011;10062;51.052;13.756;2023-10-13T01:23:58;11.17;;;5.73;;
19804;SDS011;10062;51.052;13.756;2023-10-13T01:26:30;13.47;;;6.57;;
19804;SDS011;10062;51.052;13.756;2023-10-13T01:29:03;12.23;;;5.70;;
19804;SDS011;10062;51.052;13.756;2023-10-13T01:31:42;9.37;;;5.90;;
19804;SDS011;10062;51.052;13.756;2023-10-13T01:34:18;12.73;;;5.87;;
19804;SDS011;10062;51.052;13.756;2023-10-13T01:36:52;16.03;;;5.67;;
19804;SDS011;10062;51.052;13.756;2023-10-13T01:39:26;11.77;;;5.70;;
19804;SDS011;10062;51.052;13.756;2023-10-13T01:41:58;11.17;;;5.70;;
19804;SDS011;10062;51.052;13.756;2023-10-13T01:44:31;10.53;;;6.27;;
19804;SDS011;10062;51.052;13.756;2023-10-13T01:47:03;13.73;;;5.37;;
19804;SDS011;10062;51.052;13.756;2023-10-13T01:49:36;10.87;;;6.67;;
19804;SDS011;10062;51.052;13.756;2023-10-13T01:52:11;12.53;;;5.63;;
19804;SDS011;10062;51.052;13.756;2023-10-13T01:54:47;13.00;;;5.50;;
19804;SDS011;10062;51.052;13.756;2023-10-13T01:57:20;11.00;;;5.33;;
19804;SDS011;10062;51.052;13.756;2023-10-13T01:59:54;12.53;;;5.83;;
19804;SDS011;10062;51.052;13.756;2023-10-13T02:02:25;10.43;;;5.90;;
19804;SDS011;10062;51.052;13.756;2023-10-13T02:04:59;16.20;;;6.47;;
19804;SDS011;10062;51.052;13.756;2023-10-13T02:07:30;9.80;;;5.13;;
19804;SDS011;10062;51.052;13.756;2023-10-13T02:10:06;8.97;;;5.30;;
19804;SDS011;10062;51.052;13.756;2023-10-13T02:12:42;11.00;;;5.33;;
19804;SDS011;10062;51.052;13.756;2023-10-13T02:15:14;13.83;;;6.07;;
19804;SDS011;10062;51.052;13.756;2023-10-13T02:17:51;11.33;;;6.03;;
19804;SDS011;10062;51.052;13.756;2023-10-13T02:20:24;15.07;;;6.10;;
19804;SDS011;10062;51.052;13.756;2023-10-13T02:23:00;12.40;;;5.40;;
19804;SDS011;10062;51.052;13.756;2023-10-13T02:25:34;14.33;;;6.83;;
19804;SDS011;10062;51.052;13.756;2023-10-13T02:28:05;10.53;;;5.90;;
19804;SDS011;10062;51.052;13.756;2023-10-13T02:30:40;13.83;;;6.40;;
19804;SDS011;10062;51.052;13.756;2023-10-13T02:33:14;15.13;;;5.53;;
19804;SDS011;10062;51.052;13.756;2023-10-13T02:35:51;11.33;;;5.20;;
19804;SDS011;10062;51.052;13.756;2023-10-13T02:38:23;13.77;;;6.63;;
19804;SDS011;10062;51.052;13.756;2023-10-13T02:41:09;11.73;;;6.20;;
19804;SDS011;10062;51.052;13.756;2023-10-13T02:43:41;10.37;;;5.20;;
19804;SDS011;10062;51.052;13.756;2023-10-13T02:46:13;16.23;;;6.50;;
19804;SDS011;10062;51.052;13.756;2023-10-13T02:48:47;9.70;;;5.17;;
19804;SDS011;10062;51.052;13.756;2023-10-13T02:51:23;10.47;;;5.83;;
19804;SDS011;10062;51.052;13.756;2023-10-13T02:54:00;11.50;;;5.63;;
19804;SDS011;10062;51.052;13.756;2023-10-13T02:56:35;12.33;;;6.07;;
19804;SDS011;10062;51.052;13.756;2023-10-13T02:59:06;11.93;;;5.73;;
19804;SDS011;10062;51.052;13.756;2023-10-13T03:01:42;12.80;;;6.30;;
19804;SDS011;10062;51.052;13.756;2023-10-13T03:04:13;11.77;;;5.60;;
19804;SDS011;10062;51.052;13.756;2023-10-13T03:06:44;11.87;;;5.83;;
19804;SDS011;10062;51.052;13.756;2023-10-13T03:09:17;9.27;;;6.03;;
19804;SDS011;10062;51.052;13.756;2023-10-13T03:11:53;11.20;;;5.57;;
19804;SDS011;10062;51.052;13.756;2023-10-13T03:14:23;12.97;;;6.20;;
19804;SDS011;10062;51.052;13.756;2023-10-13T03:16:58;11.23;;;5.63;;
19804;SDS011;10062;51.052;13.756;2023-10-13T03:19:35;11.60;;;6.13;;
19804;SDS011;10062;51.052;13.756;2023-10-13T03:22:08;9.93;;;5.50;;
19804;SDS011;10062;51.052;13.756;2023-10-13T03:24:44;11.23;;;5.77;;
19804;SDS011;10062;51.052;13.756;2023-10-13T03:27:17;13.13;;;6.97;;
19804;SDS011;10062;51.052;13.756;2023-10-13T03:29:53;10.03;;;6.07;;
19804;SDS011;10062;51.052;13.756;2023-10-13T03:32:25;9.13;;;6.43;;
19804;SDS011;10062;51.052;13.756;2023-10-13T03:34:57;12.27;;;6.00;;
19804;SDS011;10062;51.052;13.756;2023-10-13T03:37:41;9.73;;;5.27;;
19804;SDS011;10062;51.052;13.756;2023-10-13T03:40:13;8.90;;;5.67;;
19804;SDS011;10062;51.052;13.756;2023-10-13T03:43:00;10.20;;;6.37;;
19804;SDS011;10062;51.052;13.756;2023-10-13T03:45:35;10.23;;;5.47;;
19804;SDS011;10062;51.052;13.756;2023-10-13T03:48:10;9.47;;;5.40;;
19804;SDS011;10062;51.052;13.756;2023-10-13T03:50:59;11.33;;;5.47;;
19804;SDS011;10062;51.052;13.756;2023-10-13T03:53:37;11.73;;;5.10;;
19804;SDS011;10062;51.052;13.756;2023-10-13T03:56:23;12.57;;;5.60;;
19804;SDS011;10062;51.052;13.756;2023-10-13T03:59:10;9.10;;;5.63;;
19804;SDS011;10062;51.052;13.756;2023-10-13T04:01:49;12.07;;;6.50;;
19804;SDS011;10062;51.052;13.756;2023-10-13T04:04:29;11.63;;;5.73;;
19804;SDS011;10062;51.052;13.756;2023-10-13T04:07:06;11.17;;;4.93;;
19804;SDS011;10062;51.052;13.756;2023-10-13T04:09:50;11.57;;;5.67;;
19804;SDS011;10062;51.052;13.756;2023-10-13T04:12:40;10.77;;;6.07;;
19804;SDS011;10062;51.052;13.756;2023-10-13T04:15:33;10.83;;;5.23;;
19804;SDS011;10062;51.052;13.756;2023-10-13T04:18:13;10.57;;;6.30;;
19804;SDS011;10062;51.052;13.756;2023-10-13T04:21:03;15.97;;;5.60;;
19804;SDS011;10062;51.052;13.756;2023-10-13T04:23:49;11.30;;;5.17;;
19804;SDS011;10062;51.052;13.756;2023-10-13T04:26:50;9.07;;;5.60;;
19804;SDS011;10062;51.052;13.756;2023-10-13T04:29:40;10.27;;;5.57;;
19804;SDS011;10062;51.052;13.756;2023-10-13T04:32:41;10.67;;;6.03;;
19804;SDS011;10062;51.052;13.756;2023-10-13T04:35:17;11.30;;;5.60;;
19804;SDS011;10062;51.052;13.756;2023-10-13T04:37:50;10.10;;;5.93;;
19804;SDS011;10062;51.052;13.756;2023-10-13T04:40:28;11.83;;;6.67;;
19804;SDS011;10062;51.052;13.756;2023-10-13T04:43:05;13.57;;;5.90;;
19804;SDS011;10062;51.052;13.756;2023-10-13T04:45:58;8.03;;;5.13;;
19804;SDS011;10062;51.052;13.756;2023-10-13T04:48:45;14.50;;;5.47;;
19804;SDS011;10062;51.052;13.756;2023-10-13T04:51:17;10.77;;;5.73;;
19804;SDS011;10062;51.052;13.756;2023-10-13T04:54:04;11.17;;;5.10;;
19804;SDS011;10062;51.052;13.756;2023-10-13T04:56:42;11.47;;;5.63;;
19804;SDS011;10062;51.052;13.756;2023-10-13T04:59:50;12.10;;;5.07;;
19804;SDS011;10062;51.052;13.756;2023-10-13T05:02:56;9.90;;;4.77;;
19804;SDS011;10062;51.052;13.756;2023-10-13T05:05:44;10.27;;;5.93;;
19804;SDS011;10062;51.052;13.756;2023-10-13T05:08:36;11.40;;;5.87;;
19804;SDS011;10062;51.052;13.756;2023-10-13T05:11:25;9.70;;;5.23;;
19804;SDS011;10062;51.052;13.756;2023-10-13T05:14:15;11.97;;;5.60;;
19804;SDS011;10062;51.052;13.756;2023-10-13T05:17:04;12.90;;;5.43;;
19804;SDS011;10062;51.052;13.756;2023-10-13T05:19:55;10.87;;;5.47;;
19804;SDS011;10062;51.052;13.756;2023-10-13T05:22:46;10.73;;;5.63;;
19804;SDS011;10062;51.052;13.756;2023-10-13T05:25:35;15.43;;;9.07;;
19804;SDS011;10062;51.052;13.756;2023-10-13T05:28:25;11.63;;;7.43;;
19804;SDS011;10062;51.052;13.756;2023-10-13T05:31:14;18.97;;;11.57;;
19804;SDS011;10062;51.052;13.756;2023-10-13T05:34:03;10.60;;;6.40;;
19804;SDS011;10062;51.052;13.756;2023-10-13T05:36:52;10.70;;;5.30;;
19804;SDS011;10062;51.052;13.756;2023-10-13T05:39:43;12.13;;;5.37;;
19804;SDS011;10062;51.052;13.756;2023-10-13T05:42:33;12.13;;;5.57;;
19804;SDS011;10062;51.052;13.756;2023-10-13T05:45:22;11.60;;;5.80;;
19804;SDS011;10062;51.052;13.756;2023-10-13T05:48:06;10.50;;;5.57;;
19804;SDS011;10062;51.052;13.756;2023-10-13T05:50:49;9.03;;;4.67;;
19804;SDS011;10062;51.052;13.756;2023-10-13T05:53:41;11.27;;;5.90;;
19804;SDS011;10062;51.052;13.756;2023-10-13T05:56:33;12.77;;;5.77;;
19804;SDS011;10062;51.052;13.756;2023-10-13T05:59:22;8.00;;;5.10;;
19804;SDS011;10062;51.052;13.756;2023-10-13T06:02:12;9.07;;;5.43;;
19804;SDS011;10062;51.052;13.756;2023-10-13T06:05:03;13.20;;;5.97;;
19804;SDS011;10062;51.052;13.756;2023-10-13T06:07:53;9.60;;;5.53;;
19804;SDS011;10062;51.052;13.756;2023-10-13T06:10:48;11.83;;;6.40;;
19804;SDS011;10062;51.052;13.756;2023-10-13T06:13:38;7.57;;;5.53;;
19804;SDS011;10062;51.052;13.756;2023-10-13T06:16:27;9.57;;;5.33;;
19804;SDS011;10062;51.052;13.756;2023-10-13T06:19:17;8.73;;;4.97;;
19804;SDS011;10062;51.052;13.756;2023-10-13T06:22:06;9.17;;;5.50;;
19804;SDS011;10062;51.052;13.756;2023-10-13T06:24:55;7.87;;;4.43;;
19804;SDS011;10062;51.052;13.756;2023-10-13T06:27:44;11.40;;;4.53;;
19804;SDS011;10062;51.052;13.756;2023-10-13T06:30:35;12.70;;;5.27;;
19804;SDS011;10062;51.052;13.756;2023-10-13T06:33:08;9.43;;;4.73;;
19804;SDS011;10062;51.052;13.756;2023-10-13T06:35:49;17.13;;;5.03;;
19804;SDS011;10062;51.052;13.756;2023-10-13T06:38:21;8.40;;;4.57;;
19804;SDS011;10062;51.052;13.756;2023-10-13T06:40:53;10.17;;;4.33;;
19804;SDS011;10062;51.052;13.756;2023-10-13T06:43:26;9.53;;;4.47;;
19804;SDS011;10062;51.052;13.756;2023-10-13T06:46:04;17.63;;;5.37;;
19804;SDS011;10062;51.052;13.756;2023-10-13T06:48:35;10.17;;;4.70;;
19804;SDS011;10062;51.052;13.756;2023-10-13T06:51:10;8.50;;;4.70;;
19804;SDS011;10062;51.052;13.756;2023-10-13T06:53:48;9.93;;;4.90;;
19804;SDS011;10062;51.052;13.756;2023-10-13T06:56:26;10.67;;;4.83;;
19804;SDS011;10062;51.052;13.756;2023-10-13T06:58:59;9.20;;;5.23;;
19804;SDS011;10062;51.052;13.756;2023-10-13T07:01:35;11.77;;;5.70;;
19804;SDS011;10062;51.052;13.756;2023-10-13T07:04:11;8.63;;;5.73;;
19804;SDS011;10062;51.052;13.756;2023-10-13T07:06:46;13.03;;;5.80;;
19804;SDS011;10062;51.052;13.756;2023-10-13T07:09:19;12.27;;;7.13;;
19804;SDS011;10062;51.052;13.756;2023-10-13T07:12:05;16.07;;;9.83;;
19804;SDS011;10062;51.052;13.756;2023-10-13T07:14:37;15.03;;;7.87;;
19804;SDS011;10062;51.052;13.756;2023-10-13T07:17:11;13.63;;;6.77;;
19804;SDS011;10062;51.052;13.756;2023-10-13T07:19:43;25.67;;;15.60;;
19804;SDS011;10062;51.052;13.756;2023-10-13T07:22:23;16.77;;;9.87;;
19804;SDS011;10062;51.052;13.756;2023-10-13T07:24:58;19.43;;;8.90;;
19804;SDS011;10062;51.052;13.756;2023-10-13T07:27:29;13.30;;;8.10;;
19804;SDS011;10062;51.052;13.756;2023-10-13T07:30:05;14.50;;;8.63;;
19804;SDS011;10062;51.052;13.756;2023-10-13T07:32:45;14.60;;;9.50;;
19804;SDS011;10062;51.052;13.756;2023-10-13T07:35:17;18.03;;;9.30;;
19804;SDS011;10062;51.052;13.756;2023-10-13T07:37:54;16.17;;;10.60;;
19804;SDS011;10062;51.052;13.756;2023-10-13T07:40:30;17.07;;;10.73;;
19804;SDS011;10062;51.052;13.756;2023-10-13T07:43:20;16.60;;;11.20;;
19804;SDS011;10062;51.052;13.756;2023-10-13T07:45:52;14.40;;;10.17;;
19804;SDS011;10062;51.052;13.756;2023-10-13T07:48:30;19.43;;;11.77;;
19804;SDS011;10062;51.052;13.756;2023-10-13T07:51:03;16.33;;;10.50;;
19804;SDS011;10062;51.052;13.756;2023-10-13T07:53:40;18.47;;;11.60;;
19804;SDS011;10062;51.052;13.756;2023-10-13T07:56:13;20.60;;;11.67;;
19804;SDS011;10062;51.052;13.756;2023-10-13T07:58:48;17.90;;;10.37;;
19804;SDS011;10062;51.052;13.756;2023-10-13T08:01:22;18.43;;;12.50;;
19804;SDS011;10062;51.052;13.756;2023-10-13T08:03:56;19.03;;;13.43;;
19804;SDS011;10062;51.052;13.756;2023-10-13T08:06:41;19.70;;;12.17;;
19804;SDS011;10062;51.052;13.756;2023-10-13T08:09:13;42.00;;;27.57;;
19804;SDS011;10062;51.052;13.756;2023-10-13T08:12:10;20.83;;;12.00;;
19804;SDS011;10062;51.052;13.756;2023-10-13T08:14:43;25.73;;;20.33;;
19804;SDS011;10062;51.052;13.756;2023-10-13T08:17:14;15.67;;;10.03;;
19804;SDS011;10062;51.052;13.756;2023-10-13T08:19:46;15.27;;;10.03;;
19804;SDS011;10062;51.052;13.756;2023-10-13T08:22:19;24.90;;;18.00;;
19804;SDS011;10062;51.052;13.756;2023-10-13T08:25:06;17.13;;;10.70;;
19804;SDS011;10062;51.052;13.756;2023-10-13T08:28:05;19.43;;;10.57;;
19804;SDS011;10062;51.052;13.756;2023-10-13T08:30:55;20.30;;;14.83;;
19804;SDS011;10062;51.052;13.756;2023-10-13T08:33:27;12.10;;;8.70;;
19804;SDS011;10062;51.052;13.756;2023-10-13T08:36:00;13.87;;;8.67;;
19804;SDS011;10062;51.052;13.756;2023-10-13T08:38:57;11.70;;;7.60;;
19804;SDS011;10062;51.052;13.756;2023-10-13T08:41:46;9.97;;;5.77;;
19804;SDS011;10062;51.052;13.756;2023-10-13T08:44:30;11.83;;;5.93;;
19804;SDS011;10062;51.052;13.756;2023-10-13T08:47:03;7.70;;;5.43;;
19804;SDS011;10062;51.052;13.756;2023-10-13T08:49:36;9.93;;;5.30;;
19804;SDS011;10062;51.052;13.756;2023-10-13T08:52:11;11.07;;;5.13;;
19804;SDS011;10062;51.052;13.756;2023-10-13T08:55:16;9.93;;;4.57;;
19804;SDS011;10062;51.052;13.756;2023-10-13T08:58:18;12.83;;;5.67;;
19804;SDS011;10062;51.052;13.756;2023-10-13T09:00:56;7.73;;;5.20;;
19804;SDS011;10062;51.052;13.756;2023-10-13T09:03:41;7.73;;;4.00;;
19804;SDS011;10062;51.052;13.756;2023-10-13T09:06:13;6.10;;;3.47;;
19804;SDS011;10062;51.052;13.756;2023-10-13T09:08:45;7.63;;;3.37;;
19804;SDS011;10062;51.052;13.756;2023-10-13T09:11:34;9.60;;;3.07;;
19804;SDS011;10062;51.052;13.756;2023-10-13T09:14:19;6.63;;;3.50;;
19804;SDS011;10062;51.052;13.756;2023-10-13T09:17:07;6.40;;;2.57;;
19804;SDS011;10062;51.052;13.756;2023-10-13T09:19:45;5.50;;;2.93;;
19804;SDS011;10062;51.052;13.756;2023-10-13T09:22:26;7.10;;;2.67;;
19804;SDS011;10062;51.052;13.756;2023-10-13T09:24:57;4.63;;;2.40;;
19804;SDS011;10062;51.052;13.756;2023-10-13T09:27:30;5.33;;;2.47;;
19804;SDS011;10062;51.052;13.756;2023-10-13T09:30:03;6.20;;;2.77;;
19804;SDS011;10062;51.052;13.756;2023-10-13T09:32:41;7.13;;;2.40;;
19804;SDS011;10062;51.052;13.756;2023-10-13T09:35:16;6.40;;;2.40;;
19804;SDS011;10062;51.052;13.756;2023-10-13T09:37:53;4.03;;;2.47;;
19804;SDS011;10062;51.052;13.756;2023-10-13T09:40:26;5.37;;;2.33;;
19804;SDS011;10062;51.052;13.756;2023-10-13T09:43:04;3.87;;;2.33;;
19804;SDS011;10062;51.052;13.756;2023-10-13T09:45:37;7.07;;;2.67;;
19804;SDS011;10062;51.052;13.756;2023-10-13T09:48:12;5.33;;;2.57;;
19804;SDS011;10062;51.052;13.756;2023-10-13T09:50:46;5.23;;;2.13;;
19804;SDS011;10062;51.052;13.756;2023-10-13T09:53:19;4.67;;;2.37;;
19804;SDS011;10062;51.052;13.756;2023-10-13T09:55:54;5.10;;;2.20;;
19804;SDS011;10062;51.052;13.756;2023-10-13T09:58:42;6.50;;;2.03;;
19804;SDS011;10062;51.052;13.756;2023-10-13T10:01:22;7.03;;;2.60;;
19804;SDS011;10062;51.052;13.756;2023-10-13T10:04:07;5.43;;;2.23;;
19804;SDS011;10062;51.052;13.756;2023-10-13T10:06:51;3.80;;;2.53;;
19804;SDS011;10062;51.052;13.756;2023-10-13T10:09:26;5.97;;;2.47;;
19804;SDS011;10062;51.052;13.756;2023-10-13T10:12:08;5.17;;;2.37;;
19804;SDS011;10062;51.052;13.756;2023-10-13T10:15:06;5.53;;;2.57;;
19804;SDS011;10062;51.052;13.756;2023-10-13T10:17:45;6.07;;;2.63;;
19804;SDS011;10062;51.052;13.756;2023-10-13T10:20:27;8.90;;;2.53;;
19804;SDS011;10062;51.052;13.756;2023-10-13T10:23:03;8.43;;;3.03;;
19804;SDS011;10062;51.052;13.756;2023-10-13T10:25:35;4.57;;;2.23;;
19804;SDS011;10062;51.052;13.756;2023-10-13T10:28:07;7.90;;;2.73;;
19804;SDS011;10062;51.052;13.756;2023-10-13T10:30:40;9.00;;;2.70;;
19804;SDS011;10062;51.052;13.756;2023-10-13T10:33:12;11.57;;;4.00;;
19804;SDS011;10062;51.052;13.756;2023-10-13T10:35:48;9.30;;;2.43;;
19804;SDS011;10062;51.052;13.756;2023-10-13T10:38:31;9.27;;;2.70;;
19804;SDS011;10062;51.052;13.756;2023-10-13T10:41:08;9.07;;;2.90;;
19804;SDS011;10062;51.052;13.756;2023-10-13T10:43:43;10.93;;;2.70;;
19804;SDS011;10062;51.052;13.756;2023-10-13T10:46:17;8.53;;;3.03;;
19804;SDS011;10062;51.052;13.756;2023-10-13T10:48:57;8.27;;;2.80;;
19804;SDS011;10062;51.052;13.756;2023-10-13T10:51:32;8.43;;;3.40;;
19804;SDS011;10062;51.052;13.756;2023-10-13T10:54:17;11.30;;;3.77;;
19804;SDS011;10062;51.052;13.756;2023-10-13T10:56:50;8.37;;;3.33;;
19804;SDS011;10062;51.052;13.756;2023-10-13T10:59:33;6.93;;;2.73;;
19804;SDS011;10062;51.052;13.756;2023-10-13T11:02:07;8.63;;;2.77;;
19804;SDS011;10062;51.052;13.756;2023-10-13T11:04:41;9.27;;;2.97;;
19804;SDS011;10062;51.052;13.756;2023-10-13T11:07:22;10.07;;;3.73;;
19804;SDS011;10062;51.052;13.756;2023-10-13T11:09:55;11.13;;;3.47;;
19804;SDS011;10062;51.052;13.756;2023-10-13T11:12:41;8.50;;;3.83;;
19804;SDS011;10062;51.052;13.756;2023-10-13T11:15:13;10.33;;;3.30;;
19804;SDS011;10062;51.052;13.756;2023-10-13T11:17:52;8.53;;;3.23;;
19804;SDS011;10062;51.052;13.756;2023-10-13T11:20:26;10.53;;;3.13;;
19804;SDS011;10062;51.052;13.756;2023-10-13T11:23:11;10.30;;;3.10;;
19804;SDS011;10062;51.052;13.756;2023-10-13T11:25:43;7.70;;;3.17;;
19804;SDS011;10062;51.052;13.756;2023-10-13T11:28:15;14.37;;;4.83;;
19804;SDS011;10062;51.052;13.756;2023-10-13T11:30:49;10.67;;;4.37;;
19804;SDS011;10062;51.052;13.756;2023-10-13T11:33:21;8.07;;;3.03;;
19804;SDS011;10062;51.052;13.756;2023-10-13T11:35:54;9.00;;;3.50;;
19804;SDS011;10062;51.052;13.756;2023-10-13T11:38:28;9.93;;;4.00;;
19804;SDS011;10062;51.052;13.756;2023-10-13T11:41:12;9.60;;;4.00;;
19804;SDS011;10062;51.052;13.756;2023-10-13T11:43:47;10.57;;;3.80;;
19804;SDS011;10062;51.052;13.756;2023-10-13T11:46:43;8.73;;;3.27;;
19804;SDS011;10062;51.052;13.756;2023-10-13T11:49:25;11.37;;;3.40;;
19804;SDS011;10062;51.052;13.756;2023-10-13T11:52:07;8.60;;;3.87;;
19804;SDS011;10062;51.052;13.756;2023-10-13T11:54:48;11.40;;;4.03;;
19804;SDS011;10062;51.052;13.756;2023-10-13T11:57:20;10.37;;;4.03;;
19804;SDS011;10062;51.052;13.756;2023-10-13T11:59:52;16.13;;;3.60;;
19804;SDS011;10062;51.052;13.756;2023-10-13T12:02:26;11.70;;;3.33;;
19804;SDS011;10062;51.052;13.756;2023-10-13T12:05:23;9.63;;;3.70;;
19804;SDS011;10062;51.052;13.756;2023-10-13T12:08:07;12.87;;;3.67;;
19804;SDS011;10062;51.052;13.756;2023-10-13T12:10:53;13.27;;;3.90;;
19804;SDS011;10062;51.052;13.756;2023-10-13T12:13:50;18.17;;;6.97;;
19804;SDS011;10062;51.052;13.756;2023-10-13T12:16:22;11.23;;;3.77;;
19804;SDS011;10062;51.052;13.756;2023-10-13T12:19:04;13.27;;;4.57;;
19804;SDS011;10062;51.052;13.756;2023-10-13T12:21:40;11.03;;;3.77;;
19804;SDS011;10062;51.052;13.756;2023-10-13T12:24:13;9.10;;;3.83;;
19804;SDS011;10062;51.052;13.756;2023-10-13T12:27:02;10.67;;;3.57;;
19804;SDS011;10062;51.052;13.756;2023-10-13T12:29:49;8.80;;;3.53;;
19804;SDS011;10062;51.052;13.756;2023-10-13T12:32:22;11.37;;;3.87;;
19804;SDS011;10062;51.052;13.756;2023-10-13T12:34:55;13.37;;;4.60;;
19804;SDS011;10062;51.052;13.756;2023-10-13T12:37:30;12.43;;;3.80;;
19804;SDS011;10062;51.052;13.756;2023-10-13T12:40:19;13.40;;;6.13;;
19804;SDS011;10062;51.052;13.756;2023-10-13T12:43:18;21.00;;;9.70;;
19804;SDS011;10062;51.052;13.756;2023-10-13T12:46:23;18.47;;;9.93;;
19804;SDS011;10062;51.052;13.756;2023-10-13T12:49:12;14.03;;;6.40;;
19804;SDS011;10062;51.052;13.756;2023-10-13T12:52:07;11.63;;;5.83;;
19804;SDS011;10062;51.052;13.756;2023-10-13T12:54:46;14.00;;;6.13;;
19804;SDS011;10062;51.052;13.756;2023-10-13T12:57:28;14.57;;;6.37;;
19804;SDS011;10062;51.052;13.756;2023-10-13T13:00:02;11.87;;;6.20;;
19804;SDS011;10062;51.052;13.756;2023-10-13T13:02:46;14.63;;;6.23;;
19804;SDS011;10062;51.052;13.756;2023-10-13T13:05:21;16.27;;;5.97;;
19804;SDS011;10062;51.052;13.756;2023-10-13T13:07:58;13.27;;;6.67;;
19804;SDS011;10062;51.052;13.756;2023-10-13T13:10:30;14.13;;;6.03;;
19804;SDS011;10062;51.052;13.756;2023-10-13T13:13:08;11.93;;;5.87;;
19804;SDS011;10062;51.052;13.756;2023-10-13T13:15:41;13.23;;;6.20;;
19804;SDS011;10062;51.052;13.756;2023-10-13T13:18:13;13.37;;;5.47;;
19804;SDS011;10062;51.052;13.756;2023-10-13T13:20:44;13.77;;;5.60;;
19804;SDS011;10062;51.052;13.756;2023-10-13T13:23:23;9.53;;;6.00;;
19804;SDS011;10062;51.052;13.756;2023-10-13T13:25:56;11.03;;;5.87;;
19804;SDS011;10062;51.052;13.756;2023-10-13T13:28:28;14.87;;;5.10;;
19804;SDS011;10062;51.052;13.756;2023-10-13T13:31:09;15.33;;;5.97;;
19804;SDS011;10062;51.052;13.756;2023-10-13T13:33:42;13.63;;;5.77;;
19804;SDS011;10062;51.052;13.756;2023-10-13T13:36:14;16.20;;;6.37;;
19804;SDS011;10062;51.052;13.756;2023-10-13T13:38:46;12.83;;;5.63;;
19804;SDS011;10062;51.052;13.756;2023-10-13T13:41:19;10.37;;;4.87;;
19804;SDS011;10062;51.052;13.756;2023-10-13T13:43:51;14.73;;;4.60;;
19804;SDS011;10062;51.052;13.756;2023-10-13T13:46:28;13.03;;;4.77;;
19804;SDS011;10062;51.052;13.756;2023-10-13T13:49:02;14.13;;;4.53;;
19804;SDS011;10062;51.052;13.756;2023-10-13T13:51:37;9.80;;;4.40;;
19804;SDS011;10062;51.052;13.756;2023-10-13T13:54:09;10.50;;;4.03;;
19804;SDS011;10062;51.052;13.756;2023-10-13T13:56:41;14.63;;;5.50;;
19804;SDS011;10062;51.052;13.756;2023-10-13T13:59:13;9.67;;;3.87;;
19804;SDS011;10062;51.052;13.756;2023-10-13T14:01:51;11.97;;;4.63;;
19804;SDS011;10062;51.052;13.756;2023-10-13T14:04:23;13.47;;;4.40;;
19804;SDS011;10062;51.052;13.756;2023-10-13T14:06:55;9.97;;;4.37;;
19804;SDS011;10062;51.052;13.756;2023-10-13T14:09:27;14.87;;;5.37;;
19804;SDS011;10062;51.052;13.756;2023-10-13T14:12:06;17.02;;;4.90;;
19804;SDS011;10062;51.052;13.756;2023-10-13T14:15:06;9.43;;;4.32;;
19804;SDS011;10062;51.052;13.756;2023-10-13T14:17:51;11.02;;;3.63;;
19804;SDS011;10062;51.052;13.756;2023-10-13T14:20:22;12.07;;;4.32;;
19804;SDS011;10062;51.052;13.756;2023-10-13T14:22:57;13.07;;;4.18;;
19804;SDS011;10062;51.052;13.756;2023-10-13T14:25:28;14.55;;;4.63;;
19804;SDS011;10062;51.052;13.756;2023-10-13T14:28:07;9.43;;;4.15;;
19804;SDS011;10062;51.052;13.756;2023-10-13T14:30:41;14.93;;;4.97;;
19804;SDS011;10062;51.052;13.756;2023-10-13T14:33:14;14.15;;;4.63;;
19804;SDS011;10062;51.052;13.756;2023-10-13T14:35:46;11.75;;;4.63;;
19804;SDS011;10062;51.052;13.756;2023-10-13T14:38:18;15.95;;;4.70;;
19804;SDS011;10062;51.052;13.756;2023-10-13T14:40:55;16.67;;;5.47;;
19804;SDS011;10062;51.052;13.756;2023-10-13T14:43:27;9.60;;;4.88;;
19804;SDS011;10062;51.052;13.756;2023-10-13T14:45:59;11.23;;;4.50;;
19804;SDS011;10062;51.052;13.756;2023-10-13T14:48:32;14.75;;;4.80;;
19804;SDS011;10062;51.052;13.756;2023-10-13T14:51:09;18.10;;;4.47;;
19804;SDS011;10062;51.052;13.756;2023-10-13T14:53:43;15.10;;;4.55;;
19804;SDS011;10062;51.052;13.756;2023-10-13T14:56:15;11.95;;;4.60;;
19804;SDS011;10062;51.052;13.756;2023-10-13T14:58:47;8.55;;;3.88;;
19804;SDS011;10062;51.052;13.756;2023-10-13T15:01:21;10.45;;;3.92;;
19804;SDS011;10062;51.052;13.756;2023-10-13T15:03:58;11.30;;;4.00;;
19804;SDS011;10062;51.052;13.756;2023-10-13T15:06:29;8.88;;;4.88;;
19804;SDS011;10062;51.052;13.756;2023-10-13T15:09:02;10.48;;;4.50;;
19804;SDS011;10062;51.052;13.756;2023-10-13T15:11:40;10.20;;;4.20;;
19804;SDS011;10062;51.052;13.756;2023-10-13T15:14:15;10.77;;;4.03;;
19804;SDS011;10062;51.052;13.756;2023-10-13T15:16:50;9.00;;;4.95;;
19804;SDS011;10062;51.052;13.756;2023-10-13T15:19:24;13.23;;;5.00;;
19804;SDS011;10062;51.052;13.756;2023-10-13T15:21:58;13.68;;;5.22;;
19804;SDS011;10062;51.052;13.756;2023-10-13T15:24:31;16.58;;;6.20;;
19804;SDS011;10062;51.052;13.756;2023-10-13T15:27:06;10.82;;;5.05;;
19804;SDS011;10062;51.052;13.756;2023-10-13T15:29:38;16.38;;;5.38;;